sensor_id;sensor_type;location;lat;lon;timestamp;pressure;altitude;pressure_sealevel;temperature;humidity
63808;BME280;49961;43.970;22.868;2023-07-31T00:00:00;100837.06;;;24.05;100.00
63808;BME280;49961;43.970;22.868;2023-07-31T00:01:01;100840.41;;;24.03;100.00
63808;BME280;49961;43.970;22.868;2023-07-31T00:02:01;100838.09;;;23.96;100.00
63808;BME280;49961;43.970;22.868;2023-07-31T00:03:01;100850.19;;;24.02;100.00
63808;BME280;49961;43.970;22.868;2023-07-31T00:04:02;100848.38;;;23.94;100.00
63808;BME280;49961;43.970;22.868;2023-07-31T00:05:03;100843.53;;;23.89;100.00
63808;BME280;49961;43.970;22.868;2023-07-31T00:06:04;100843.28;;;23.81;100.00
63808;BME280;49961;43.970;22.868;2023-07-31T00:07:04;100845.81;;;23.85;100.00
63808;BME280;49961;43.970;22.868;2023-07-31T00:08:06;100837.06;;;23.83;100.00
63808;BME280;49961;43.970;22.868;2023-07-31T00:09:06;100852.50;;;23.87;100.00
63808;BME280;49961;43.970;22.868;2023-07-31T00:10:07;100850.44;;;23.88;100.00
63808;BME280;49961;43.970;22.868;2023-07-31T00:11:08;100846.34;;;23.83;100.00
63808;BME280;49961;43.970;22.868;2023-07-31T00:12:08;100849.16;;;23.78;100.00
63808;BME280;49961;43.970;22.868;2023-07-31T00:13:08;100831.44;;;23.72;100.00
63808;BME280;49961;43.970;22.868;2023-07-31T00:14:09;100841.72;;;23.80;100.00
63808;BME280;49961;43.970;22.868;2023-07-31T00:15:10;100833.47;;;23.77;100.00
63808;BME280;49961;43.970;22.868;2023-07-31T00:16:10;100821.16;;;23.69;100.00
63808;BME280;49961;43.970;22.868;2023-07-31T00:17:11;100772.63;;;23.37;100.00
63808;BME280;49961;43.970;22.868;2023-07-31T00:18:12;100760.56;;;23.26;100.00
63808;BME280;49961;43.970;22.868;2023-07-31T00:19:12;100789.56;;;23.48;100.00
63808;BME280;49961;43.970;22.868;2023-07-31T00:20:12;100839.16;;;23.82;100.00
63808;BME280;49961;43.970;22.868;2023-07-31T00:21:13;100786.97;;;23.50;100.00
63808;BME280;49961;43.970;22.868;2023-07-31T00:22:13;100834.78;;;23.81;100.00
63808;BME280;49961;43.970;22.868;2023-07-31T00:23:14;100790.34;;;23.49;100.00
63808;BME280;49961;43.970;22.868;2023-07-31T00:24:14;100781.91;;;23.38;100.00
63808;BME280;49961;43.970;22.868;2023-07-31T00:25:15;100840.44;;;23.70;100.00
63808;BME280;49961;43.970;22.868;2023-07-31T00:26:15;100842.25;;;23.73;100.00
63808;BME280;49961;43.970;22.868;2023-07-31T00:27:15;100850.50;;;23.71;100.00
63808;BME280;49961;43.970;22.868;2023-07-31T00:28:16;100853.31;;;23.66;100.00
63808;BME280;49961;43.970;22.868;2023-07-31T00:29:16;100735.41;;;22.89;100.00
63808;BME280;49961;43.970;22.868;2023-07-31T00:30:17;100832.75;;;23.54;100.00
63808;BME280;49961;43.970;22.868;2023-07-31T00:31:17;100791.91;;;23.33;100.00
63808;BME280;49961;43.970;22.868;2023-07-31T00:32:18;100853.06;;;23.69;100.00
63808;BME280;49961;43.970;22.868;2023-07-31T00:33:18;100738.47;;;22.97;100.00
63808;BME280;49961;43.970;22.868;2023-07-31T00:34:18;100832.25;;;23.61;100.00
63808;BME280;49961;43.970;22.868;2023-07-31T00:35:19;100840.72;;;23.72;100.00
63808;BME280;49961;43.970;22.868;2023-07-31T00:36:19;100843.28;;;23.76;100.00
63808;BME280;49961;43.970;22.868;2023-07-31T00:37:20;100790.38;;;23.38;100.00
63808;BME280;49961;43.970;22.868;2023-07-31T00:38:20;100832.72;;;23.65;100.00
63808;BME280;49961;43.970;22.868;2023-07-31T00:39:20;100758.50;;;23.10;100.00
63808;BME280;49961;43.970;22.868;2023-07-31T00:40:21;100813.47;;;23.53;100.00
63808;BME280;49961;43.970;22.868;2023-07-31T00:41:21;100840.19;;;23.68;100.00
63808;BME280;49961;43.970;22.868;2023-07-31T00:42:22;100788.06;;;23.36;100.00
63808;BME280;49961;43.970;22.868;2023-07-31T00:43:22;100847.13;;;23.73;100.00
63808;BME280;49961;43.970;22.868;2023-07-31T00:44:23;100850.72;;;23.73;100.00
63808;BME280;49961;43.970;22.868;2023-07-31T00:45:23;100786.78;;;23.26;100.00
63808;BME280;49961;43.970;22.868;2023-07-31T00:46:24;100844.56;;;23.69;100.00
63808;BME280;49961;43.970;22.868;2023-07-31T00:47:24;100845.84;;;23.68;100.00
63808;BME280;49961;43.970;22.868;2023-07-31T00:48:25;100828.13;;;23.57;100.00
63808;BME280;49961;43.970;22.868;2023-07-31T00:49:26;100837.59;;;23.70;100.00
63808;BME280;49961;43.970;22.868;2023-07-31T00:50:28;100845.34;;;23.70;100.00
63808;BME280;49961;43.970;22.868;2023-07-31T00:51:29;100739.75;;;23.01;100.00
63808;BME280;49961;43.970;22.868;2023-07-31T00:52:29;100838.16;;;23.63;100.00
63808;BME280;49961;43.970;22.868;2023-07-31T00:53:29;100846.38;;;23.67;100.00
63808;BME280;49961;43.970;22.868;2023-07-31T00:54:30;100846.13;;;23.65;100.00
63808;BME280;49961;43.970;22.868;2023-07-31T00:55:31;100832.25;;;23.61;100.00
63808;BME280;49961;43.970;22.868;2023-07-31T00:56:32;100834.28;;;23.61;100.00
63808;BME280;49961;43.970;22.868;2023-07-31T00:57:33;100846.41;;;23.61;100.00
63808;BME280;49961;43.970;22.868;2023-07-31T00:58:35;100840.75;;;23.61;100.00
63808;BME280;49961;43.970;22.868;2023-07-31T00:59:35;100838.91;;;23.53;100.00
63808;BME280;49961;43.970;22.868;2023-07-31T01:00:35;100835.84;;;23.56;100.00
63808;BME280;49961;43.970;22.868;2023-07-31T01:01:36;100833.81;;;23.51;100.00
63808;BME280;49961;43.970;22.868;2023-07-31T01:02:37;100837.16;;;23.50;100.00
63808;BME280;49961;43.970;22.868;2023-07-31T01:03:38;100840.72;;;23.50;100.00
63808;BME280;49961;43.970;22.868;2023-07-31T01:04:39;100831.22;;;23.53;100.00
63808;BME280;49961;43.970;22.868;2023-07-31T01:06:56;100831.72;;;23.57;100.00
63808;BME280;49961;43.970;22.868;2023-07-31T01:08:33;100833.78;;;23.57;100.00
63808;BME280;49961;43.970;22.868;2023-07-31T01:09:44;100771.34;;;23.16;100.00
63808;BME280;49961;43.970;22.868;2023-07-31T01:10:49;100822.97;;;23.55;100.00
63808;BME280;49961;43.970;22.868;2023-07-31T01:11:57;100821.44;;;23.54;100.00
63808;BME280;49961;43.970;22.868;2023-07-31T01:13:00;100789.34;;;23.35;100.00
63808;BME280;49961;43.970;22.868;2023-07-31T01:14:01;100830.94;;;23.57;100.00
63808;BME280;49961;43.970;22.868;2023-07-31T01:15:06;100825.03;;;23.60;100.00
63808;BME280;49961;43.970;22.868;2023-07-31T01:16:09;100837.38;;;23.63;100.00
63808;BME280;49961;43.970;22.868;2023-07-31T01:17:10;100824.50;;;23.62;100.00
63808;BME280;49961;43.970;22.868;2023-07-31T01:18:10;100810.41;;;23.56;100.00
63808;BME280;49961;43.970;22.868;2023-07-31T01:19:11;100805.75;;;23.53;100.00
63808;BME280;49961;43.970;22.868;2023-07-31T01:20:15;100826.31;;;23.65;100.00
63808;BME280;49961;43.970;22.868;2023-07-31T01:25:33;100816.81;;;23.57;100.00
63808;BME280;49961;43.970;22.868;2023-07-31T01:26:39;100813.25;;;23.45;100.00
63808;BME280;49961;43.970;22.868;2023-07-31T01:27:46;100824.28;;;23.49;100.00
63808;BME280;49961;43.970;22.868;2023-07-31T01:29:03;100820.69;;;23.54;100.00
63808;BME280;49961;43.970;22.868;2023-07-31T01:30:11;100757.47;;;23.13;100.00
63808;BME280;49961;43.970;22.868;2023-07-31T01:31:21;100831.22;;;23.48;100.00
63808;BME280;49961;43.970;22.868;2023-07-31T01:32:22;100820.94;;;23.45;100.00
63808;BME280;49961;43.970;22.868;2023-07-31T01:33:23;100769.03;;;23.09;100.00
63808;BME280;49961;43.970;22.868;2023-07-31T01:34:25;100788.81;;;23.15;100.00
63808;BME280;49961;43.970;22.868;2023-07-31T01:35:26;100820.94;;;23.45;100.00
63808;BME280;49961;43.970;22.868;2023-07-31T01:36:28;100763.38;;;23.09;100.00
63808;BME280;49961;43.970;22.868;2023-07-31T01:37:29;100813.25;;;23.45;100.00
63808;BME280;49961;43.970;22.868;2023-07-31T01:38:32;100815.81;;;23.43;100.00
63808;BME280;49961;43.970;22.868;2023-07-31T01:39:33;100811.97;;;23.46;100.00
63808;BME280;49961;43.970;22.868;2023-07-31T01:40:33;100820.94;;;23.50;100.00
63808;BME280;49961;43.970;22.868;2023-07-31T01:41:33;100819.13;;;23.53;100.00
63808;BME280;49961;43.970;22.868;2023-07-31T01:42:34;100818.09;;;23.56;100.00
63808;BME280;49961;43.970;22.868;2023-07-31T01:43:34;100813.47;;;23.53;100.00
63808;BME280;49961;43.970;22.868;2023-07-31T01:44:35;100787.28;;;23.41;100.00
63808;BME280;49961;43.970;22.868;2023-07-31T01:45:35;100814.25;;;23.59;100.00
63808;BME280;49961;43.970;22.868;2023-07-31T01:46:36;100809.34;;;23.59;100.00
63808;BME280;49961;43.970;22.868;2023-07-31T01:47:36;100816.03;;;23.62;100.00
63808;BME280;49961;43.970;22.868;2023-07-31T01:48:36;100806.25;;;23.63;100.00
63808;BME280;49961;43.970;22.868;2023-07-31T01:49:37;100808.31;;;23.62;100.00
63808;BME280;49961;43.970;22.868;2023-07-31T01:50:37;100762.63;;;23.25;100.00
63808;BME280;49961;43.970;22.868;2023-07-31T01:51:38;100816.06;;;23.56;100.00
63808;BME280;49961;43.970;22.868;2023-07-31T01:52:38;100816.56;;;23.49;100.00
63808;BME280;49961;43.970;22.868;2023-07-31T01:53:39;100819.41;;;23.55;100.00
63808;BME280;49961;43.970;22.868;2023-07-31T01:54:39;100810.13;;;23.54;100.00
63808;BME280;49961;43.970;22.868;2023-07-31T01:55:39;100719.19;;;22.90;100.00
63808;BME280;49961;43.970;22.868;2023-07-31T01:56:40;100743.84;;;23.06;100.00
63808;BME280;49961;43.970;22.868;2023-07-31T01:57:40;100816.53;;;23.60;100.00
63808;BME280;49961;43.970;22.868;2023-07-31T01:58:41;100818.63;;;23.60;100.00
63808;BME280;49961;43.970;22.868;2023-07-31T01:59:41;100819.13;;;23.58;100.00
63808;BME280;49961;43.970;22.868;2023-07-31T02:00:42;100744.59;;;23.17;100.00
63808;BME280;49961;43.970;22.868;2023-07-31T02:01:42;100729.47;;;23.04;100.00
63808;BME280;49961;43.970;22.868;2023-07-31T02:02:43;100817.06;;;23.59;100.00
63808;BME280;49961;43.970;22.868;2023-07-31T02:03:43;100826.81;;;23.58;100.00
63808;BME280;49961;43.970;22.868;2023-07-31T02:04:43;100832.50;;;23.63;100.00
63808;BME280;49961;43.970;22.868;2023-07-31T02:05:48;100815.53;;;23.47;100.00
63808;BME280;49961;43.970;22.868;2023-07-31T02:06:48;100833.00;;;23.62;100.00
63808;BME280;49961;43.970;22.868;2023-07-31T02:07:49;100800.38;;;23.50;100.00
63808;BME280;49961;43.970;22.868;2023-07-31T02:08:49;100823.22;;;23.68;100.00
63808;BME280;49961;43.970;22.868;2023-07-31T02:09:49;100827.84;;;23.66;100.00
63808;BME280;49961;43.970;22.868;2023-07-31T02:10:51;100830.69;;;23.71;100.00
63808;BME280;49961;43.970;22.868;2023-07-31T02:11:52;100788.53;;;23.46;100.00
63808;BME280;49961;43.970;22.868;2023-07-31T02:12:52;100814.72;;;23.68;100.00
63808;BME280;49961;43.970;22.868;2023-07-31T02:13:52;100823.47;;;23.70;100.00
63808;BME280;49961;43.970;22.868;2023-07-31T02:14:53;100824.25;;;23.71;100.00
63808;BME280;49961;43.970;22.868;2023-07-31T02:15:53;100826.06;;;23.68;100.00
63808;BME280;49961;43.970;22.868;2023-07-31T02:16:54;100835.56;;;23.71;100.00
63808;BME280;49961;43.970;22.868;2023-07-31T02:17:54;100834.53;;;23.68;100.00
63808;BME280;49961;43.970;22.868;2023-07-31T02:18:54;100826.59;;;23.56;100.00
63808;BME280;49961;43.970;22.868;2023-07-31T02:19:55;100835.34;;;23.52;100.00
63808;BME280;49961;43.970;22.868;2023-07-31T02:20:55;100836.38;;;23.55;100.00
63808;BME280;49961;43.970;22.868;2023-07-31T02:21:56;100844.59;;;23.64;100.00
63808;BME280;49961;43.970;22.868;2023-07-31T02:22:56;100855.13;;;23.63;100.00
63808;BME280;49961;43.970;22.868;2023-07-31T02:23:57;100779.31;;;23.12;100.00
63808;BME280;49961;43.970;22.868;2023-07-31T02:24:57;100863.34;;;23.50;100.00
63808;BME280;49961;43.970;22.868;2023-07-31T02:25:58;100831.75;;;23.24;100.00
63808;BME280;49961;43.970;22.868;2023-07-31T02:26:58;100862.09;;;23.46;100.00
63808;BME280;49961;43.970;22.868;2023-07-31T02:27:58;100865.69;;;23.41;100.00
63808;BME280;49961;43.970;22.868;2023-07-31T02:28:59;100862.34;;;23.37;100.00
63808;BME280;49961;43.970;22.868;2023-07-31T02:29:59;100777.25;;;22.85;100.00
63808;BME280;49961;43.970;22.868;2023-07-31T02:31:00;100863.91;;;23.38;100.00
63808;BME280;49961;43.970;22.868;2023-07-31T02:32:00;100857.72;;;23.39;100.00
63808;BME280;49961;43.970;22.868;2023-07-31T02:33:01;100863.38;;;23.39;100.00
63808;BME280;49961;43.970;22.868;2023-07-31T02:34:01;100868.25;;;23.44;100.00
63808;BME280;49961;43.970;22.868;2023-07-31T02:35:02;100865.19;;;23.42;100.00
63808;BME280;49961;43.970;22.868;2023-07-31T02:36:02;100858.50;;;23.40;100.00
63808;BME280;49961;43.970;22.868;2023-07-31T02:37:03;100840.78;;;23.23;100.00
63808;BME280;49961;43.970;22.868;2023-07-31T02:38:03;100818.09;;;23.12;100.00
63808;BME280;49961;43.970;22.868;2023-07-31T02:39:04;100873.41;;;23.46;100.00
63808;BME280;49961;43.970;22.868;2023-07-31T02:40:04;100876.22;;;23.46;100.00
63808;BME280;49961;43.970;22.868;2023-07-31T02:41:05;100848.97;;;23.37;100.00
63808;BME280;49961;43.970;22.868;2023-07-31T02:42:05;100865.44;;;23.50;100.00
63808;BME280;49961;43.970;22.868;2023-07-31T02:43:06;100857.22;;;23.35;100.00
63808;BME280;49961;43.970;22.868;2023-07-31T02:44:07;100871.06;;;23.55;100.00
63808;BME280;49961;43.970;22.868;2023-07-31T02:45:07;100870.03;;;23.53;100.00
63808;BME280;49961;43.970;22.868;2023-07-31T02:46:08;100872.09;;;23.58;100.00
63808;BME280;49961;43.970;22.868;2023-07-31T02:47:08;100818.13;;;23.17;100.00
63808;BME280;49961;43.970;22.868;2023-07-31T02:48:09;100877.25;;;23.54;100.00
63808;BME280;49961;43.970;22.868;2023-07-31T02:49:09;100862.06;;;23.57;100.00
63808;BME280;49961;43.970;22.868;2023-07-31T02:50:10;100869.81;;;23.56;100.00
63808;BME280;49961;43.970;22.868;2023-07-31T02:51:10;100876.22;;;23.57;100.00
63808;BME280;49961;43.970;22.868;2023-07-31T02:52:11;100819.41;;;23.22;100.00
63808;BME280;49961;43.970;22.868;2023-07-31T02:53:11;100876.75;;;23.44;100.00
63808;BME280;49961;43.970;22.868;2023-07-31T02:54:11;100790.59;;;22.96;100.00
63808;BME280;49961;43.970;22.868;2023-07-31T02:55:12;100870.81;;;23.48;100.00
63808;BME280;49961;43.970;22.868;2023-07-31T02:56:12;100880.09;;;23.43;100.00
63808;BME280;49961;43.970;22.868;2023-07-31T02:57:13;100879.06;;;23.40;100.00
63808;BME280;49961;43.970;22.868;2023-07-31T02:58:13;100880.09;;;23.37;100.00
63808;BME280;49961;43.970;22.868;2023-07-31T02:59:13;100879.06;;;23.35;100.00
63808;BME280;49961;43.970;22.868;2023-07-31T03:00:14;100875.72;;;23.31;100.00
63808;BME280;49961;43.970;22.868;2023-07-31T03:01:14;100872.91;;;23.25;100.00
63808;BME280;49961;43.970;22.868;2023-07-31T03:02:15;100880.88;;;23.32;100.00
63808;BME280;49961;43.970;22.868;2023-07-31T03:03:15;100885.72;;;23.32;100.00
63808;BME280;49961;43.970;22.868;2023-07-31T03:04:15;100881.66;;;23.33;100.00
63808;BME280;49961;43.970;22.868;2023-07-31T03:05:16;100880.63;;;23.30;100.00
63808;BME280;49961;43.970;22.868;2023-07-31T03:06:16;100866.22;;;23.23;100.00
63808;BME280;49961;43.970;22.868;2023-07-31T03:07:17;100860.53;;;23.17;100.00
63808;BME280;49961;43.970;22.868;2023-07-31T03:08:17;100847.41;;;23.03;100.00
63808;BME280;49961;43.970;22.868;2023-07-31T03:09:18;100890.09;;;23.22;100.00
63808;BME280;49961;43.970;22.868;2023-07-31T03:10:18;100888.56;;;23.21;100.00
63808;BME280;49961;43.970;22.868;2023-07-31T03:12:19;100871.31;;;23.02;100.00
63808;BME280;49961;43.970;22.868;2023-07-31T03:13:20;100876.75;;;23.22;100.00
63808;BME280;49961;43.970;22.868;2023-07-31T03:14:20;100881.91;;;23.24;100.00
63808;BME280;49961;43.970;22.868;2023-07-31T03:15:21;100861.03;;;23.05;100.00
63808;BME280;49961;43.970;22.868;2023-07-31T03:16:21;100883.94;;;23.18;100.00
63808;BME280;49961;43.970;22.868;2023-07-31T03:17:22;100877.00;;;23.19;100.00
63808;BME280;49961;43.970;22.868;2023-07-31T03:18:22;100880.56;;;23.14;100.00
63808;BME280;49961;43.970;22.868;2023-07-31T03:19:23;100888.31;;;23.19;100.00
63808;BME280;49961;43.970;22.868;2023-07-31T03:20:23;100805.75;;;22.76;100.00
63808;BME280;49961;43.970;22.868;2023-07-31T03:21:24;100878.03;;;23.21;100.00
63808;BME280;49961;43.970;22.868;2023-07-31T03:22:24;100876.75;;;23.22;100.00
63808;BME280;49961;43.970;22.868;2023-07-31T03:23:24;100883.19;;;23.23;100.00
63808;BME280;49961;43.970;22.868;2023-07-31T03:25:26;100880.34;;;23.23;100.00
63808;BME280;49961;43.970;22.868;2023-07-31T03:26:26;100866.44;;;23.14;100.00
63808;BME280;49961;43.970;22.868;2023-07-31T03:27:27;100821.19;;;22.86;100.00
63808;BME280;49961;43.970;22.868;2023-07-31T03:28:27;100783.66;;;22.64;100.00
63808;BME280;49961;43.970;22.868;2023-07-31T03:29:28;100893.19;;;23.24;100.00
63808;BME280;49961;43.970;22.868;2023-07-31T03:30:28;100760.22;;;22.41;100.00
63808;BME280;49961;43.970;22.868;2023-07-31T03:31:28;100891.63;;;23.17;100.00
63808;BME280;49961;43.970;22.868;2023-07-31T03:32:29;100882.88;;;23.15;100.00
63808;BME280;49961;43.970;22.868;2023-07-31T03:33:29;100892.44;;;23.18;100.00
63808;BME280;49961;43.970;22.868;2023-07-31T03:34:30;100889.81;;;23.14;100.00
63808;BME280;49961;43.970;22.868;2023-07-31T03:35:32;100888.28;;;23.13;100.00
63808;BME280;49961;43.970;22.868;2023-07-31T03:36:32;100772.03;;;22.34;100.00
63808;BME280;49961;43.970;22.868;2023-07-31T03:37:33;100886.19;;;23.08;100.00
63808;BME280;49961;43.970;22.868;2023-07-31T03:38:34;100892.63;;;23.14;100.00
63808;BME280;49961;43.970;22.868;2023-07-31T03:39:35;100893.69;;;23.11;100.00
63808;BME280;49961;43.970;22.868;2023-07-31T03:40:35;100886.19;;;23.08;100.00
63808;BME280;49961;43.970;22.868;2023-07-31T03:41:36;100882.09;;;23.15;100.00
63808;BME280;49961;43.970;22.868;2023-07-31T03:42:36;100824.25;;;22.72;100.00
63808;BME280;49961;43.970;22.868;2023-07-31T03:43:37;100899.56;;;23.13;100.00
63808;BME280;49961;43.970;22.868;2023-07-31T03:44:37;100888.03;;;23.11;100.00
63808;BME280;49961;43.970;22.868;2023-07-31T03:45:37;100879.50;;;22.95;100.00
63808;BME280;49961;43.970;22.868;2023-07-31T03:46:38;100896.50;;;23.11;100.00
63808;BME280;49961;43.970;22.868;2023-07-31T03:47:38;100893.16;;;23.13;100.00
63808;BME280;49961;43.970;22.868;2023-07-31T03:48:39;100897.28;;;23.17;100.00
63808;BME280;49961;43.970;22.868;2023-07-31T03:49:39;100895.47;;;23.14;100.00
63808;BME280;49961;43.970;22.868;2023-07-31T03:50:40;100902.19;;;23.22;100.00
63808;BME280;49961;43.970;22.868;2023-07-31T03:51:40;100900.41;;;23.25;100.00
63808;BME280;49961;43.970;22.868;2023-07-31T03:52:41;100880.81;;;22.99;100.00
63808;BME280;49961;43.970;22.868;2023-07-31T03:53:42;100903.44;;;23.16;100.00
63808;BME280;49961;43.970;22.868;2023-07-31T03:54:43;100899.84;;;23.15;100.00
63808;BME280;49961;43.970;22.868;2023-07-31T03:55:44;100897.03;;;23.15;100.00
63808;BME280;49961;43.970;22.868;2023-07-31T03:56:45;100908.59;;;23.17;100.00
63808;BME280;49961;43.970;22.868;2023-07-31T03:57:45;100901.38;;;23.16;100.00
63808;BME280;49961;43.970;22.868;2023-07-31T03:58:45;100897.53;;;23.14;100.00
63808;BME280;49961;43.970;22.868;2023-07-31T03:59:46;100909.13;;;23.21;100.00
63808;BME280;49961;43.970;22.868;2023-07-31T04:00:47;100912.72;;;23.22;100.00
63808;BME280;49961;43.970;22.868;2023-07-31T04:01:47;100871.78;;;22.90;100.00
63808;BME280;49961;43.970;22.868;2023-07-31T04:02:47;100905.81;;;23.23;100.00
63808;BME280;49961;43.970;22.868;2023-07-31T04:03:48;100894.94;;;23.16;100.00
63808;BME280;49961;43.970;22.868;2023-07-31T04:04:48;100851.50;;;22.91;100.00
63808;BME280;49961;43.970;22.868;2023-07-31T04:05:49;100905.81;;;23.23;100.00
63808;BME280;49961;43.970;22.868;2023-07-31T04:06:49;100909.41;;;23.18;100.00
63808;BME280;49961;43.970;22.868;2023-07-31T04:07:49;100919.09;;;23.17;100.00
63808;BME280;49961;43.970;22.868;2023-07-31T04:08:50;100913.50;;;23.22;100.00
63808;BME280;49961;43.970;22.868;2023-07-31T04:09:50;100910.63;;;23.17;100.00
63808;BME280;49961;43.970;22.868;2023-07-31T04:10:51;100910.41;;;23.26;100.00
63808;BME280;49961;43.970;22.868;2023-07-31T04:11:51;100918.16;;;23.25;100.00
63808;BME280;49961;43.970;22.868;2023-07-31T04:13:52;100920.69;;;23.23;100.00
63808;BME280;49961;43.970;22.868;2023-07-31T04:14:52;100843.00;;;22.75;100.00
63808;BME280;49961;43.970;22.868;2023-07-31T04:15:53;100920.69;;;23.23;100.00
63808;BME280;49961;43.970;22.868;2023-07-31T04:16:54;100919.41;;;23.30;100.00
63808;BME280;49961;43.970;22.868;2023-07-31T04:17:54;100918.16;;;23.25;100.00
63808;BME280;49961;43.970;22.868;2023-07-31T04:18:55;100904.22;;;23.16;100.00
63808;BME280;49961;43.970;22.868;2023-07-31T04:19:55;100913.53;;;23.28;100.00
63808;BME280;49961;43.970;22.868;2023-07-31T04:20:56;100912.97;;;23.29;100.00
63808;BME280;49961;43.970;22.868;2023-07-31T04:21:56;100880.53;;;22.92;100.00
63808;BME280;49961;43.970;22.868;2023-07-31T04:22:56;100834.25;;;22.67;100.00
63808;BME280;49961;43.970;22.868;2023-07-31T04:23:57;100923.00;;;23.25;100.00
63808;BME280;49961;43.970;22.868;2023-07-31T04:24:58;100918.63;;;23.18;100.00
63808;BME280;49961;43.970;22.868;2023-07-31T04:25:59;100842.19;;;22.63;100.00
63808;BME280;49961;43.970;22.868;2023-07-31T04:26:59;100863.03;;;22.82;100.00
63808;BME280;49961;43.970;22.868;2023-07-31T04:27:59;100916.53;;;23.13;100.00
63808;BME280;49961;43.970;22.868;2023-07-31T04:29:00;100904.22;;;23.05;100.00
63808;BME280;49961;43.970;22.868;2023-07-31T04:30:00;100908.59;;;23.17;100.00
63808;BME280;49961;43.970;22.868;2023-07-31T04:31:01;100918.06;;;23.14;100.00
63808;BME280;49961;43.970;22.868;2023-07-31T04:32:01;100911.13;;;23.10;100.00
63808;BME280;49961;43.970;22.868;2023-07-31T04:33:01;100908.56;;;23.06;100.00
63808;BME280;49961;43.970;22.868;2023-07-31T04:34:03;100909.84;;;23.00;100.00
63808;BME280;49961;43.970;22.868;2023-07-31T04:35:04;100885.16;;;22.84;100.00
63808;BME280;49961;43.970;22.868;2023-07-31T04:36:04;100823.13;;;22.42;100.00
63808;BME280;49961;43.970;22.868;2023-07-31T04:37:05;100846.56;;;22.59;100.00
63808;BME280;49961;43.970;22.868;2023-07-31T04:38:05;100862.25;;;22.71;100.00
63808;BME280;49961;43.970;22.868;2023-07-31T04:39:05;100908.81;;;23.03;100.00
63808;BME280;49961;43.970;22.868;2023-07-31T04:40:06;100914.97;;;23.07;100.00
63808;BME280;49961;43.970;22.868;2023-07-31T04:41:07;100917.81;;;23.07;100.00
63808;BME280;49961;43.970;22.868;2023-07-31T04:42:07;100912.69;;;23.11;100.00
63808;BME280;49961;43.970;22.868;2023-07-31T04:43:08;100918.09;;;23.09;100.00
63808;BME280;49961;43.970;22.868;2023-07-31T04:44:08;100915.53;;;23.16;100.00
63808;BME280;49961;43.970;22.868;2023-07-31T04:45:11;100918.06;;;23.14;100.00
63808;BME280;49961;43.970;22.868;2023-07-31T04:46:11;100926.06;;;23.10;100.00
63808;BME280;49961;43.970;22.868;2023-07-31T04:47:12;100918.34;;;23.11;100.00
63808;BME280;49961;43.970;22.868;2023-07-31T04:48:12;100916.53;;;23.13;100.00
63808;BME280;49961;43.970;22.868;2023-07-31T04:49:13;100917.31;;;23.14;100.00
63808;BME280;49961;43.970;22.868;2023-07-31T04:50:13;100921.19;;;23.16;100.00
63808;BME280;49961;43.970;22.868;2023-07-31T04:51:13;100925.06;;;23.19;100.00
63808;BME280;49961;43.970;22.868;2023-07-31T04:52:14;100852.78;;;22.79;100.00
63808;BME280;49961;43.970;22.868;2023-07-31T04:53:14;100861.78;;;22.89;100.00
63808;BME280;49961;43.970;22.868;2023-07-31T04:54:15;100907.84;;;23.22;100.00
63808;BME280;49961;43.970;22.868;2023-07-31T04:55:15;100929.44;;;23.25;100.00
63808;BME280;49961;43.970;22.868;2023-07-31T04:56:16;100851.47;;;22.75;100.00
63808;BME280;49961;43.970;22.868;2023-07-31T04:57:16;100915.81;;;23.24;100.00
63808;BME280;49961;43.970;22.868;2023-07-31T04:58:17;100930.75;;;23.35;100.00
63808;BME280;49961;43.970;22.868;2023-07-31T04:59:17;100933.06;;;23.31;100.00
63808;BME280;49961;43.970;22.868;2023-07-31T05:00:17;100925.84;;;23.30;100.00
63808;BME280;49961;43.970;22.868;2023-07-31T05:01:18;100928.41;;;23.28;100.00
63808;BME280;49961;43.970;22.868;2023-07-31T05:02:18;100917.59;;;23.27;100.00
63808;BME280;49961;43.970;22.868;2023-07-31T05:03:19;100870.28;;;23.05;100.00
63808;BME280;49961;43.970;22.868;2023-07-31T05:04:19;100931.50;;;23.36;100.00
63808;BME280;49961;43.970;22.868;2023-07-31T05:05:19;100928.69;;;23.36;100.00
63808;BME280;49961;43.970;22.868;2023-07-31T05:06:20;100927.91;;;23.41;100.00
63808;BME280;49961;43.970;22.868;2023-07-31T05:07:20;100925.88;;;23.41;100.00
63808;BME280;49961;43.970;22.868;2023-07-31T05:08:21;100936.16;;;23.50;100.00
63808;BME280;49961;43.970;22.868;2023-07-31T05:09:21;100928.69;;;23.47;100.00
63808;BME280;49961;43.970;22.868;2023-07-31T05:10:21;100935.38;;;23.55;100.00
63808;BME280;49961;43.970;22.868;2023-07-31T05:11:22;100937.94;;;23.53;100.00
63808;BME280;49961;43.970;22.868;2023-07-31T05:12:22;100933.56;;;23.57;100.00
63808;BME280;49961;43.970;22.868;2023-07-31T05:13:23;100938.97;;;23.61;100.00
63808;BME280;49961;43.970;22.868;2023-07-31T05:14:23;100940.78;;;23.64;100.00
63808;BME280;49961;43.970;22.868;2023-07-31T05:15:24;100942.56;;;23.72;100.00
63808;BME280;49961;43.970;22.868;2023-07-31T05:16:24;100941.78;;;23.83;100.00
63808;BME280;49961;43.970;22.868;2023-07-31T05:17:24;100949.81;;;23.90;100.00
63808;BME280;49961;43.970;22.868;2023-07-31T05:18:25;100956.22;;;23.96;100.00